Boudicca — C6VA3 — position and weather

sailwx.info

Track history (hours):
 
Tides and Currents Weather Stations Pressure Air Temp Water Temp Dewpoint Dewpoint Depression Visibility Wind Speed Wind Dir Waves Ship Positions

Boudicca

Last reported at 2017-Sep-25 04:40 UTC. Time now 2017-Sep-25 07:49 UTC.
Position N 43°36' W 005°57'.

Length 205 m; draft 7.5 m.

Type: Passenger vessel. MMSI: 309964000.

Date/timePositionNaut miles runAvg speedWind from/ knotsBaromVisibWave heightAir tempDewpointWater temp
2017-Sep-25 04:40N 43°36' W 005°57'3 8.5
2017-Sep-25 04:18N 43°39' W 005°59'412.3
2017-Sep-25 03:58N 43°40' W 006°04'612.5
2017-Sep-25 03:29N 43°42' W 006°12'3513.3
2017-Sep-25 00:49N 43°49' W 006°60'413.3
2017-Sep-25 00:30N 43°49' W 007°06'612.9
2017-Sep-25 00:00N 43°51' W 007°15'612.6
2017-Sep-24 23:30N 43°51' W 007°23'815.8
2017-Sep-24 23:00N 43°52' W 007°34'816.0
2017-Sep-24 22:30N 43°52' W 007°45'815.8
2017-Sep-24 22:01N 43°52' W 007°56'  
2017-Sep-22 02:00N 53°31' W 003°40'713.5
2017-Sep-22 01:30N 53°31' W 003°52'713.7
2017-Sep-22 01:00N 53°30' W 004°03'  
2017-Sep-19 16:02N 40°17' W 009°48'216.5
2017-Sep-19 15:54N 40°15' W 009°48'716.3
2017-Sep-19 15:29N 40°08' W 009°48'916.5
2017-Sep-19 14:56N 39°59' W 009°48'716.6
2017-Sep-19 14:30N 39°52' W 009°49'916.5
2017-Sep-19 13:58N 39°43' W 009°50'816.4
2017-Sep-19 13:30N 39°36' W 009°50'1016.5
2017-Sep-19 12:53N 39°26' W 009°50'616.7
2017-Sep-19 12:31N 39°19' W 009°50'816.8
2017-Sep-19 12:00N 39°11' W 009°50'816.6
2017-Sep-19 11:30N 39°03' W 009°50'816.6
2017-Sep-19 11:01N 38°54' W 009°51'816.6
2017-Sep-19 10:30N 38°46' W 009°51'816.6
2017-Sep-19 10:00N 38°38' W 009°48'816.0
2017-Sep-19 09:30N 38°30' W 009°45'816.3
2017-Sep-19 09:00N 38°22' W 009°43'816.2
2017-Sep-19 08:30N 38°14' W 009°41'816.1
2017-Sep-19 08:00N 38°06' W 009°39'816.3
2017-Sep-19 07:30N 37°59' W 009°36'816.3
2017-Sep-19 07:00N 37°51' W 009°34'816.1
2017-Sep-19 06:30N 37°43' W 009°32'816.6
2017-Sep-19 06:00N 37°35' W 009°30'1516.5
2017-Sep-19 05:07N 37°21' W 009°25'516.7
2017-Sep-19 04:50N 37°16' W 009°24'3715.3
2017-Sep-19 02:25N 36°43' W 009°02'716.7
2017-Sep-19 02:00N 36°42' W 008°54'816.5
2017-Sep-19 01:30N 36°42' W 008°43'816.7
2017-Sep-19 01:00N 36°41' W 008°33'916.8
2017-Sep-19 00:30N 36°40' W 008°22'816.8
2017-Sep-19 00:00N 36°40' W 008°12'816.6
2017-Sep-18 23:30N 36°39' W 008°02'816.5
2017-Sep-18 23:00N 36°38' W 007°52'117 5.3
2017-Sep-18 01:00N 35°58' W 005°36'714.9
2017-Sep-18 00:30N 35°60' W 005°27'713.8
2017-Sep-18 00:00N 36°01' W 005°19'22315.1
2017-Sep-17 09:12N 37°06' W 000°53'416.9
2017-Sep-17 08:58N 37°08' W 000°49'14416.3
2017-Sep-17 00:08N 38°26' E 001°43'216.4
2017-Sep-17 00:00N 38°27' E 001°46'816.4
2017-Sep-16 23:30N 38°32' E 001°55'816.3
2017-Sep-16 23:00N 38°36' E 002°03'816.5
2017-Sep-16 22:30N 38°41' E 002°12'916.5
2017-Sep-16 21:58N 38°45' E 002°21'816.5
2017-Sep-16 21:30N 38°49' E 002°30'816.5
2017-Sep-16 21:00N 38°54' E 002°39'816.5
2017-Sep-16 20:30N 38°58' E 002°48'816.6
2017-Sep-16 20:00N 39°02' E 002°57'816.5
2017-Sep-16 19:30N 39°07' E 003°06'816.6
2017-Sep-16 19:00N 39°12' E 003°15'816.6
2017-Sep-16 18:30N 39°16' E 003°23'816.5
2017-Sep-16 18:00N 39°21' E 003°32'816.7
2017-Sep-16 17:30N 39°25' E 003°42'816.7
2017-Sep-16 17:00N 39°30' E 003°51'27110.3
2017-Sep-15 14:37N 43°22' E 006°57'216.9
2017-Sep-15 14:30N 43°24' E 006°59'815.4
2017-Sep-15 14:00N 43°31' E 007°01'1 1.9
2017-Sep-15 13:30N 43°32' E 007°01'0 0.0
2017-Sep-15 13:00N 43°32' E 007°01'0 0.0
2017-Sep-15 12:30N 43°32' E 007°01'0 0.0
2017-Sep-15 12:00N 43°32' E 007°01'0 0.0
2017-Sep-15 11:30N 43°32' E 007°01'0 0.0
2017-Sep-15 11:00N 43°32' E 007°01'0 0.0
2017-Sep-15 10:30N 43°32' E 007°01'0 0.0
2017-Sep-15 09:57N 43°32' E 007°01'0 0.0
2017-Sep-15 09:30N 43°32' E 007°01'0 0.0
2017-Sep-15 08:54N 43°32' E 007°01'0 0.0
2017-Sep-15 08:30N 43°32' E 007°01'0 0.0
2017-Sep-15 08:00N 43°32' E 007°01'0 0.0
2017-Sep-15 07:27N 43°32' E 007°01'0 0.0
2017-Sep-15 06:54N 43°32' E 007°01'0 0.0
2017-Sep-15 06:30N 43°32' E 007°01'0 0.0
2017-Sep-15 06:00N 43°32' E 007°01'0 0.0
2017-Sep-15 05:27N 43°32' E 007°01'0 0.1
2017-Sep-15 05:00N 43°32' E 007°01'  
Track history (hours):
 
Tides and Currents Weather Stations Pressure Air Temp Water Temp Dewpoint Dewpoint Depression Visibility Wind Speed Wind Dir Waves Ship Positions

Boudicca

Last reported at 2017-Sep-25 04:40 UTC. Time now 2017-Sep-25 07:49 UTC.
Position N 43°36' W 005°57'.

Length 205 m; draft 7.5 m.

Type: Passenger vessel. MMSI: 309964000.

Date/timePositionNaut miles runAvg speedWind from/ knotsBaromVisibWave heightAir tempDewpointWater temp
2017-Sep-25 04:40N 43°36' W 005°57'3 8.5
2017-Sep-25 04:18N 43°39' W 005°59'412.3
2017-Sep-25 03:58N 43°40' W 006°04'612.5
2017-Sep-25 03:29N 43°42' W 006°12'3513.3
2017-Sep-25 00:49N 43°49' W 006°60'413.3
2017-Sep-25 00:30N 43°49' W 007°06'612.9
2017-Sep-25 00:00N 43°51' W 007°15'612.6
2017-Sep-24 23:30N 43°51' W 007°23'815.8
2017-Sep-24 23:00N 43°52' W 007°34'816.0
2017-Sep-24 22:30N 43°52' W 007°45'815.8
2017-Sep-24 22:01N 43°52' W 007°56'  
2017-Sep-22 02:00N 53°31' W 003°40'713.5
2017-Sep-22 01:30N 53°31' W 003°52'713.7
2017-Sep-22 01:00N 53°30' W 004°03'  
2017-Sep-19 16:02N 40°17' W 009°48'216.5
2017-Sep-19 15:54N 40°15' W 009°48'716.3
2017-Sep-19 15:29N 40°08' W 009°48'916.5
2017-Sep-19 14:56N 39°59' W 009°48'716.6
2017-Sep-19 14:30N 39°52' W 009°49'916.5
2017-Sep-19 13:58N 39°43' W 009°50'816.4
2017-Sep-19 13:30N 39°36' W 009°50'1016.5
2017-Sep-19 12:53N 39°26' W 009°50'616.7
2017-Sep-19 12:31N 39°19' W 009°50'816.8
2017-Sep-19 12:00N 39°11' W 009°50'816.6
2017-Sep-19 11:30N 39°03' W 009°50'816.6
2017-Sep-19 11:01N 38°54' W 009°51'816.6
2017-Sep-19 10:30N 38°46' W 009°51'816.6
2017-Sep-19 10:00N 38°38' W 009°48'816.0
2017-Sep-19 09:30N 38°30' W 009°45'816.3
2017-Sep-19 09:00N 38°22' W 009°43'816.2
2017-Sep-19 08:30N 38°14' W 009°41'816.1
2017-Sep-19 08:00N 38°06' W 009°39'816.3
2017-Sep-19 07:30N 37°59' W 009°36'816.3
2017-Sep-19 07:00N 37°51' W 009°34'816.1
2017-Sep-19 06:30N 37°43' W 009°32'816.6
2017-Sep-19 06:00N 37°35' W 009°30'1516.5
2017-Sep-19 05:07N 37°21' W 009°25'516.7
2017-Sep-19 04:50N 37°16' W 009°24'3715.3
2017-Sep-19 02:25N 36°43' W 009°02'716.7
2017-Sep-19 02:00N 36°42' W 008°54'816.5
2017-Sep-19 01:30N 36°42' W 008°43'816.7
2017-Sep-19 01:00N 36°41' W 008°33'916.8
2017-Sep-19 00:30N 36°40' W 008°22'816.8
2017-Sep-19 00:00N 36°40' W 008°12'816.6
2017-Sep-18 23:30N 36°39' W 008°02'816.5
2017-Sep-18 23:00N 36°38' W 007°52'117 5.3
2017-Sep-18 01:00N 35°58' W 005°36'714.9
2017-Sep-18 00:30N 35°60' W 005°27'713.8
2017-Sep-18 00:00N 36°01' W 005°19'22315.1
2017-Sep-17 09:12N 37°06' W 000°53'416.9
2017-Sep-17 08:58N 37°08' W 000°49'14416.3
2017-Sep-17 00:08N 38°26' E 001°43'216.4
2017-Sep-17 00:00N 38°27' E 001°46'816.4
2017-Sep-16 23:30N 38°32' E 001°55'816.3
2017-Sep-16 23:00N 38°36' E 002°03'816.5
2017-Sep-16 22:30N 38°41' E 002°12'916.5
2017-Sep-16 21:58N 38°45' E 002°21'816.5
2017-Sep-16 21:30N 38°49' E 002°30'816.5
2017-Sep-16 21:00N 38°54' E 002°39'816.5
2017-Sep-16 20:30N 38°58' E 002°48'816.6
2017-Sep-16 20:00N 39°02' E 002°57'816.5
2017-Sep-16 19:30N 39°07' E 003°06'816.6
2017-Sep-16 19:00N 39°12' E 003°15'816.6
2017-Sep-16 18:30N 39°16' E 003°23'816.5
2017-Sep-16 18:00N 39°21' E 003°32'816.7
2017-Sep-16 17:30N 39°25' E 003°42'816.7
2017-Sep-16 17:00N 39°30' E 003°51'27110.3
2017-Sep-15 14:37N 43°22' E 006°57'216.9
2017-Sep-15 14:30N 43°24' E 006°59'815.4
2017-Sep-15 14:00N 43°31' E 007°01'1 1.9
2017-Sep-15 13:30N 43°32' E 007°01'0 0.0
2017-Sep-15 13:00N 43°32' E 007°01'0 0.0
2017-Sep-15 12:30N 43°32' E 007°01'0 0.0
2017-Sep-15 12:00N 43°32' E 007°01'0 0.0
2017-Sep-15 11:30N 43°32' E 007°01'0 0.0
2017-Sep-15 11:00N 43°32' E 007°01'0 0.0
2017-Sep-15 10:30N 43°32' E 007°01'0 0.0
2017-Sep-15 09:57N 43°32' E 007°01'0 0.0
2017-Sep-15 09:30N 43°32' E 007°01'0 0.0
2017-Sep-15 08:54N 43°32' E 007°01'0 0.0
2017-Sep-15 08:30N 43°32' E 007°01'0 0.0
2017-Sep-15 08:00N 43°32' E 007°01'0 0.0
2017-Sep-15 07:27N 43°32' E 007°01'0 0.0
2017-Sep-15 06:54N 43°32' E 007°01'0 0.0
2017-Sep-15 06:30N 43°32' E 007°01'0 0.0
2017-Sep-15 06:00N 43°32' E 007°01'0 0.0
2017-Sep-15 05:27N 43°32' E 007°01'0 0.1
2017-Sep-15 05:00N 43°32' E 007°01'  

Dump ship's entire track history